sensor_id;sensor_type;location;lat;lon;timestamp;P1;durP1;ratioP1;P2;durP2;ratioP2
63342;SDS011;49465;57.664;39.686;2022-08-19T00:01:17;5.70;;;3.63;;
63342;SDS011;49465;57.664;39.686;2022-08-19T00:03:44;7.00;;;3.85;;
63342;SDS011;49465;57.664;39.686;2022-08-19T00:06:14;5.45;;;4.10;;
63342;SDS011;49465;57.664;39.686;2022-08-19T00:08:41;7.53;;;4.10;;
63342;SDS011;49465;57.664;39.686;2022-08-19T00:11:08;6.25;;;4.10;;
63342;SDS011;49465;57.664;39.686;2022-08-19T00:13:36;7.03;;;4.07;;
63342;SDS011;49465;57.664;39.686;2022-08-19T00:16:06;5.55;;;4.20;;
63342;SDS011;49465;57.664;39.686;2022-08-19T00:18:44;7.50;;;4.18;;
63342;SDS011;49465;57.664;39.686;2022-08-19T00:21:19;5.03;;;3.95;;
63342;SDS011;49465;57.664;39.686;2022-08-19T00:23:55;6.72;;;4.00;;
63342;SDS011;49465;57.664;39.686;2022-08-19T00:26:29;5.70;;;3.80;;
63342;SDS011;49465;57.664;39.686;2022-08-19T00:28:55;6.10;;;3.67;;
63342;SDS011;49465;57.664;39.686;2022-08-19T00:31:22;5.72;;;3.60;;
63342;SDS011;49465;57.664;39.686;2022-08-19T00:33:50;4.95;;;3.88;;
63342;SDS011;49465;57.664;39.686;2022-08-19T00:36:16;6.88;;;4.03;;
63342;SDS011;49465;57.664;39.686;2022-08-19T00:38:47;8.20;;;4.20;;
63342;SDS011;49465;57.664;39.686;2022-08-19T00:41:15;4.63;;;3.80;;
63342;SDS011;49465;57.664;39.686;2022-08-19T00:44:04;7.07;;;3.58;;
63342;SDS011;49465;57.664;39.686;2022-08-19T00:46:34;5.38;;;3.80;;
63342;SDS011;49465;57.664;39.686;2022-08-19T00:49:04;5.68;;;3.90;;
63342;SDS011;49465;57.664;39.686;2022-08-19T00:52:02;6.65;;;3.55;;
63342;SDS011;49465;57.664;39.686;2022-08-19T00:54:33;5.65;;;3.60;;
63342;SDS011;49465;57.664;39.686;2022-08-19T00:57:06;4.32;;;3.50;;
63342;SDS011;49465;57.664;39.686;2022-08-19T00:59:40;9.52;;;3.50;;
63342;SDS011;49465;57.664;39.686;2022-08-19T01:02:16;7.47;;;3.70;;
63342;SDS011;49465;57.664;39.686;2022-08-19T01:04:50;10.45;;;3.97;;
63342;SDS011;49465;57.664;39.686;2022-08-19T01:07:33;9.23;;;3.78;;
63342;SDS011;49465;57.664;39.686;2022-08-19T01:10:00;6.75;;;3.63;;
63342;SDS011;49465;57.664;39.686;2022-08-19T01:15:21;7.50;;;3.45;;
63342;SDS011;49465;57.664;39.686;2022-08-19T01:18:05;6.10;;;3.30;;
63342;SDS011;49465;57.664;39.686;2022-08-19T01:20:34;8.73;;;3.97;;
63342;SDS011;49465;57.664;39.686;2022-08-19T01:23:01;6.65;;;3.53;;
63342;SDS011;49465;57.664;39.686;2022-08-19T01:25:32;7.63;;;3.75;;
63342;SDS011;49465;57.664;39.686;2022-08-19T01:28:06;6.40;;;3.47;;
63342;SDS011;49465;57.664;39.686;2022-08-19T01:30:34;6.25;;;3.38;;
63342;SDS011;49465;57.664;39.686;2022-08-19T01:33:01;5.65;;;3.35;;
63342;SDS011;49465;57.664;39.686;2022-08-19T01:35:31;8.52;;;3.70;;
63342;SDS011;49465;57.664;39.686;2022-08-19T01:38:05;5.45;;;3.63;;
63342;SDS011;49465;57.664;39.686;2022-08-19T01:40:34;6.70;;;3.50;;
63342;SDS011;49465;57.664;39.686;2022-08-19T01:43:03;4.57;;;3.60;;
63342;SDS011;49465;57.664;39.686;2022-08-19T01:45:31;6.45;;;3.13;;
63342;SDS011;49465;57.664;39.686;2022-08-19T01:48:04;5.90;;;3.40;;
63342;SDS011;49465;57.664;39.686;2022-08-19T01:50:37;4.87;;;3.60;;
63342;SDS011;49465;57.664;39.686;2022-08-19T01:53:09;6.60;;;3.78;;
63342;SDS011;49465;57.664;39.686;2022-08-19T01:55:37;4.32;;;3.45;;
63342;SDS011;49465;57.664;39.686;2022-08-19T01:58:05;6.40;;;3.70;;
63342;SDS011;49465;57.664;39.686;2022-08-19T02:00:42;5.70;;;3.50;;
63342;SDS011;49465;57.664;39.686;2022-08-19T02:03:08;6.50;;;3.50;;
63342;SDS011;49465;57.664;39.686;2022-08-19T02:05:40;5.05;;;3.35;;
63342;SDS011;49465;57.664;39.686;2022-08-19T02:08:11;3.50;;;3.20;;
63342;SDS011;49465;57.664;39.686;2022-08-19T02:10:39;8.23;;;3.30;;
63342;SDS011;49465;57.664;39.686;2022-08-19T02:13:17;5.78;;;3.53;;
63342;SDS011;49465;57.664;39.686;2022-08-19T02:19:06;5.00;;;3.38;;
63342;SDS011;49465;57.664;39.686;2022-08-19T02:21:33;3.88;;;3.30;;
63342;SDS011;49465;57.664;39.686;2022-08-19T02:23:59;3.60;;;3.05;;
63342;SDS011;49465;57.664;39.686;2022-08-19T02:26:31;4.70;;;3.45;;
63342;SDS011;49465;57.664;39.686;2022-08-19T02:28:58;4.22;;;3.63;;
63342;SDS011;49465;57.664;39.686;2022-08-19T02:31:36;5.10;;;3.30;;
63342;SDS011;49465;57.664;39.686;2022-08-19T02:34:05;5.07;;;3.00;;
63342;SDS011;49465;57.664;39.686;2022-08-19T02:36:32;5.75;;;3.45;;
63342;SDS011;49465;57.664;39.686;2022-08-19T02:38:58;6.90;;;3.72;;
63342;SDS011;49465;57.664;39.686;2022-08-19T02:41:26;6.00;;;3.60;;
63342;SDS011;49465;57.664;39.686;2022-08-19T02:44:03;5.93;;;3.90;;
63342;SDS011;49465;57.664;39.686;2022-08-19T02:46:34;6.50;;;3.53;;
63342;SDS011;49465;57.664;39.686;2022-08-19T02:49:05;4.85;;;3.53;;
63342;SDS011;49465;57.664;39.686;2022-08-19T02:51:42;6.00;;;3.65;;
63342;SDS011;49465;57.664;39.686;2022-08-19T02:54:14;5.22;;;3.80;;
63342;SDS011;49465;57.664;39.686;2022-08-19T02:56:54;7.20;;;3.53;;
63342;SDS011;49465;57.664;39.686;2022-08-19T02:59:21;4.88;;;3.80;;
63342;SDS011;49465;57.664;39.686;2022-08-19T03:01:59;5.03;;;3.70;;
63342;SDS011;49465;57.664;39.686;2022-08-19T03:04:31;5.82;;;3.70;;
63342;SDS011;49465;57.664;39.686;2022-08-19T03:07:00;5.22;;;3.80;;
63342;SDS011;49465;57.664;39.686;2022-08-19T03:09:40;4.82;;;3.90;;
63342;SDS011;49465;57.664;39.686;2022-08-19T03:12:07;6.85;;;3.80;;
63342;SDS011;49465;57.664;39.686;2022-08-19T03:14:37;4.93;;;3.60;;
63342;SDS011;49465;57.664;39.686;2022-08-19T03:17:10;6.40;;;3.80;;
63342;SDS011;49465;57.664;39.686;2022-08-19T03:19:39;6.70;;;4.10;;
63342;SDS011;49465;57.664;39.686;2022-08-19T03:22:09;4.82;;;3.42;;
63342;SDS011;49465;57.664;39.686;2022-08-19T03:24:36;7.32;;;4.00;;
63342;SDS011;49465;57.664;39.686;2022-08-19T03:27:06;6.68;;;4.18;;
63342;SDS011;49465;57.664;39.686;2022-08-19T03:29:54;5.28;;;3.90;;
63342;SDS011;49465;57.664;39.686;2022-08-19T03:32:24;12.10;;;4.10;;
63342;SDS011;49465;57.664;39.686;2022-08-19T03:34:55;8.38;;;3.97;;
63342;SDS011;49465;57.664;39.686;2022-08-19T03:37:31;4.88;;;4.05;;
63342;SDS011;49465;57.664;39.686;2022-08-19T03:40:02;6.47;;;4.03;;
63342;SDS011;49465;57.664;39.686;2022-08-19T03:42:29;5.25;;;3.72;;
63342;SDS011;49465;57.664;39.686;2022-08-19T03:45:04;6.93;;;4.20;;
63342;SDS011;49465;57.664;39.686;2022-08-19T03:47:39;7.45;;;4.07;;
63342;SDS011;49465;57.664;39.686;2022-08-19T03:50:11;6.80;;;4.07;;
63342;SDS011;49465;57.664;39.686;2022-08-19T03:52:50;6.88;;;4.25;;
63342;SDS011;49465;57.664;39.686;2022-08-19T03:55:17;6.65;;;4.10;;
63342;SDS011;49465;57.664;39.686;2022-08-19T03:57:44;9.15;;;4.53;;
63342;SDS011;49465;57.664;39.686;2022-08-19T04:00:12;8.70;;;4.32;;
63342;SDS011;49465;57.664;39.686;2022-08-19T04:02:40;7.75;;;4.32;;
63342;SDS011;49465;57.664;39.686;2022-08-19T04:05:10;8.05;;;4.30;;
63342;SDS011;49465;57.664;39.686;2022-08-19T04:07:40;4.85;;;3.80;;
63342;SDS011;49465;57.664;39.686;2022-08-19T04:10:11;8.52;;;4.63;;
63342;SDS011;49465;57.664;39.686;2022-08-19T04:12:40;6.75;;;4.18;;
63342;SDS011;49465;57.664;39.686;2022-08-19T04:15:16;7.78;;;4.40;;
63342;SDS011;49465;57.664;39.686;2022-08-19T04:17:52;9.35;;;4.72;;
63342;SDS011;49465;57.664;39.686;2022-08-19T04:20:28;7.60;;;4.70;;
63342;SDS011;49465;57.664;39.686;2022-08-19T04:26:07;11.00;;;4.38;;
63342;SDS011;49465;57.664;39.686;2022-08-19T04:28:50;7.72;;;4.50;;
63342;SDS011;49465;57.664;39.686;2022-08-19T04:31:53;6.55;;;4.32;;
63342;SDS011;49465;57.664;39.686;2022-08-19T04:34:31;11.38;;;4.80;;
63342;SDS011;49465;57.664;39.686;2022-08-19T04:37:01;10.00;;;4.90;;
63342;SDS011;49465;57.664;39.686;2022-08-19T04:39:45;8.57;;;4.47;;
63342;SDS011;49465;57.664;39.686;2022-08-19T04:42:42;7.68;;;4.50;;
63342;SDS011;49465;57.664;39.686;2022-08-19T04:45:14;7.80;;;4.60;;
63342;SDS011;49465;57.664;39.686;2022-08-19T04:47:54;11.63;;;5.18;;
63342;SDS011;49465;57.664;39.686;2022-08-19T04:50:22;7.50;;;5.00;;
63342;SDS011;49465;57.664;39.686;2022-08-19T04:52:58;10.73;;;4.80;;
63342;SDS011;49465;57.664;39.686;2022-08-19T04:55:37;7.65;;;5.10;;
63342;SDS011;49465;57.664;39.686;2022-08-19T04:58:11;9.02;;;5.13;;
63342;SDS011;49465;57.664;39.686;2022-08-19T05:00:46;8.75;;;4.80;;
63342;SDS011;49465;57.664;39.686;2022-08-19T05:03:15;8.02;;;4.57;;
63342;SDS011;49465;57.664;39.686;2022-08-19T05:09:04;8.48;;;4.60;;
63342;SDS011;49465;57.664;39.686;2022-08-19T05:11:33;9.45;;;5.00;;
63342;SDS011;49465;57.664;39.686;2022-08-19T05:14:01;8.93;;;4.90;;
63342;SDS011;49465;57.664;39.686;2022-08-19T05:16:30;10.13;;;4.68;;
63342;SDS011;49465;57.664;39.686;2022-08-19T05:18:59;7.72;;;4.70;;
63342;SDS011;49465;57.664;39.686;2022-08-19T05:21:48;7.30;;;4.65;;
63342;SDS011;49465;57.664;39.686;2022-08-19T05:24:38;13.50;;;4.90;;
63342;SDS011;49465;57.664;39.686;2022-08-19T05:27:07;8.23;;;4.50;;
63342;SDS011;49465;57.664;39.686;2022-08-19T05:29:36;10.52;;;4.75;;
63342;SDS011;49465;57.664;39.686;2022-08-19T05:32:09;7.63;;;4.65;;
63342;SDS011;49465;57.664;39.686;2022-08-19T05:34:39;8.53;;;4.70;;
63342;SDS011;49465;57.664;39.686;2022-08-19T05:37:14;8.95;;;4.63;;
63342;SDS011;49465;57.664;39.686;2022-08-19T05:40:11;6.65;;;4.45;;
63342;SDS011;49465;57.664;39.686;2022-08-19T05:42:45;9.10;;;4.72;;
63342;SDS011;49465;57.664;39.686;2022-08-19T05:45:23;7.38;;;5.13;;
63342;SDS011;49465;57.664;39.686;2022-08-19T05:47:53;11.25;;;4.97;;
63342;SDS011;49465;57.664;39.686;2022-08-19T05:50:35;6.63;;;4.13;;
63342;SDS011;49465;57.664;39.686;2022-08-19T05:56:11;9.32;;;4.60;;
63342;SDS011;49465;57.664;39.686;2022-08-19T05:58:48;10.15;;;4.68;;
63342;SDS011;49465;57.664;39.686;2022-08-19T06:01:19;8.55;;;4.60;;
63342;SDS011;49465;57.664;39.686;2022-08-19T06:03:46;10.20;;;4.43;;
63342;SDS011;49465;57.664;39.686;2022-08-19T06:06:26;6.70;;;4.32;;
63342;SDS011;49465;57.664;39.686;2022-08-19T06:09:09;7.80;;;4.15;;
63342;SDS011;49465;57.664;39.686;2022-08-19T06:11:46;6.15;;;4.25;;
63342;SDS011;49465;57.664;39.686;2022-08-19T06:14:19;7.85;;;4.13;;
63342;SDS011;49465;57.664;39.686;2022-08-19T06:16:59;9.27;;;4.28;;
63342;SDS011;49465;57.664;39.686;2022-08-19T06:19:29;8.27;;;3.78;;
63342;SDS011;49465;57.664;39.686;2022-08-19T06:22:04;7.63;;;3.85;;
63342;SDS011;49465;57.664;39.686;2022-08-19T06:24:31;6.65;;;3.92;;
63342;SDS011;49465;57.664;39.686;2022-08-19T06:27:09;5.68;;;3.70;;
63342;SDS011;49465;57.664;39.686;2022-08-19T06:29:38;8.25;;;3.72;;
63342;SDS011;49465;57.664;39.686;2022-08-19T06:32:09;7.45;;;3.60;;
63342;SDS011;49465;57.664;39.686;2022-08-19T06:34:54;5.63;;;3.70;;
63342;SDS011;49465;57.664;39.686;2022-08-19T06:37:51;7.18;;;3.70;;
63342;SDS011;49465;57.664;39.686;2022-08-19T06:40:17;9.75;;;3.60;;
63342;SDS011;49465;57.664;39.686;2022-08-19T06:42:53;6.75;;;3.45;;
63342;SDS011;49465;57.664;39.686;2022-08-19T06:48:39;7.43;;;3.13;;
63342;SDS011;49465;57.664;39.686;2022-08-19T06:51:31;9.18;;;3.53;;
63342;SDS011;49465;57.664;39.686;2022-08-19T06:54:13;6.22;;;3.25;;
63342;SDS011;49465;57.664;39.686;2022-08-19T06:57:10;7.07;;;3.15;;
63342;SDS011;49465;57.664;39.686;2022-08-19T06:59:40;7.30;;;3.20;;
63342;SDS011;49465;57.664;39.686;2022-08-19T07:02:24;7.40;;;3.20;;
63342;SDS011;49465;57.664;39.686;2022-08-19T07:05:10;7.43;;;3.03;;
63342;SDS011;49465;57.664;39.686;2022-08-19T07:07:44;4.32;;;2.90;;
63342;SDS011;49465;57.664;39.686;2022-08-19T07:10:16;8.15;;;3.22;;
63342;SDS011;49465;57.664;39.686;2022-08-19T07:12:51;5.22;;;2.83;;
63342;SDS011;49465;57.664;39.686;2022-08-19T07:15:17;5.78;;;2.83;;
63342;SDS011;49465;57.664;39.686;2022-08-19T07:17:51;6.35;;;2.80;;
63342;SDS011;49465;57.664;39.686;2022-08-19T07:20:34;3.95;;;2.67;;
63342;SDS011;49465;57.664;39.686;2022-08-19T07:23:04;6.05;;;2.80;;
63342;SDS011;49465;57.664;39.686;2022-08-19T07:25:45;6.20;;;2.63;;
63342;SDS011;49465;57.664;39.686;2022-08-19T07:28:14;7.18;;;2.78;;
63342;SDS011;49465;57.664;39.686;2022-08-19T07:30:43;9.35;;;3.30;;
63342;SDS011;49465;57.664;39.686;2022-08-19T07:33:15;12.82;;;3.10;;
63342;SDS011;49465;57.664;39.686;2022-08-19T07:35:48;4.50;;;2.67;;
63342;SDS011;49465;57.664;39.686;2022-08-19T07:38:17;5.40;;;2.53;;
63342;SDS011;49465;57.664;39.686;2022-08-19T07:40:53;5.72;;;2.65;;
63342;SDS011;49465;57.664;39.686;2022-08-19T07:43:24;7.53;;;2.80;;
63342;SDS011;49465;57.664;39.686;2022-08-19T07:45:59;4.45;;;2.50;;
63342;SDS011;49465;57.664;39.686;2022-08-19T07:48:30;4.30;;;2.63;;
63342;SDS011;49465;57.664;39.686;2022-08-19T07:50:58;4.15;;;2.30;;
63342;SDS011;49465;57.664;39.686;2022-08-19T07:53:34;8.93;;;2.65;;
63342;SDS011;49465;57.664;39.686;2022-08-19T07:56:14;6.22;;;2.53;;
63342;SDS011;49465;57.664;39.686;2022-08-19T07:58:42;5.63;;;2.20;;
63342;SDS011;49465;57.664;39.686;2022-08-19T08:01:23;5.05;;;2.40;;
63342;SDS011;49465;57.664;39.686;2022-08-19T08:04:03;5.93;;;2.60;;
63342;SDS011;49465;57.664;39.686;2022-08-19T08:06:59;6.25;;;2.58;;
63342;SDS011;49465;57.664;39.686;2022-08-19T08:09:49;5.55;;;2.50;;
63342;SDS011;49465;57.664;39.686;2022-08-19T08:12:28;10.15;;;2.38;;
63342;SDS011;49465;57.664;39.686;2022-08-19T08:15:05;7.90;;;2.30;;
63342;SDS011;49465;57.664;39.686;2022-08-19T08:17:36;6.13;;;2.40;;
63342;SDS011;49465;57.664;39.686;2022-08-19T08:20:11;5.57;;;2.40;;
63342;SDS011;49465;57.664;39.686;2022-08-19T08:22:49;8.63;;;2.50;;
63342;SDS011;49465;57.664;39.686;2022-08-19T08:25:46;8.70;;;2.30;;
63342;SDS011;49465;57.664;39.686;2022-08-19T08:28:27;7.18;;;2.35;;
63342;SDS011;49465;57.664;39.686;2022-08-19T08:31:08;10.18;;;2.40;;
63342;SDS011;49465;57.664;39.686;2022-08-19T08:33:50;7.30;;;2.40;;
63342;SDS011;49465;57.664;39.686;2022-08-19T08:36:30;4.03;;;2.00;;
63342;SDS011;49465;57.664;39.686;2022-08-19T08:39:15;6.88;;;2.30;;
63342;SDS011;49465;57.664;39.686;2022-08-19T08:45:14;5.82;;;2.20;;
63342;SDS011;49465;57.664;39.686;2022-08-19T08:47:49;6.68;;;2.20;;
63342;SDS011;49465;57.664;39.686;2022-08-19T08:50:29;8.10;;;2.40;;
63342;SDS011;49465;57.664;39.686;2022-08-19T08:53:04;4.80;;;2.30;;
63342;SDS011;49465;57.664;39.686;2022-08-19T08:55:33;8.60;;;2.50;;
63342;SDS011;49465;57.664;39.686;2022-08-19T08:58:28;7.88;;;2.63;;
63342;SDS011;49465;57.664;39.686;2022-08-19T09:00:56;3.15;;;2.10;;
63342;SDS011;49465;57.664;39.686;2022-08-19T09:03:26;5.07;;;2.15;;
63342;SDS011;49465;57.664;39.686;2022-08-19T09:16:40;6.68;;;2.40;;
63342;SDS011;49465;57.664;39.686;2022-08-19T09:19:09;10.40;;;2.45;;
63342;SDS011;49465;57.664;39.686;2022-08-19T09:21:40;6.95;;;2.10;;
63342;SDS011;49465;57.664;39.686;2022-08-19T09:24:10;5.47;;;2.35;;
63342;SDS011;49465;57.664;39.686;2022-08-19T09:26:47;6.10;;;2.47;;
63342;SDS011;49465;57.664;39.686;2022-08-19T09:29:14;4.70;;;2.08;;
63342;SDS011;49465;57.664;39.686;2022-08-19T09:31:40;9.48;;;2.55;;
63342;SDS011;49465;57.664;39.686;2022-08-19T09:34:11;8.18;;;2.28;;
63342;SDS011;49465;57.664;39.686;2022-08-19T09:36:41;6.50;;;2.35;;
63342;SDS011;49465;57.664;39.686;2022-08-19T09:39:08;7.35;;;2.45;;
63342;SDS011;49465;57.664;39.686;2022-08-19T09:41:43;9.27;;;2.13;;
63342;SDS011;49465;57.664;39.686;2022-08-19T09:44:44;3.30;;;2.05;;
63342;SDS011;49465;57.664;39.686;2022-08-19T09:47:16;7.82;;;2.15;;
63342;SDS011;49465;57.664;39.686;2022-08-19T09:49:50;7.90;;;2.20;;
63342;SDS011;49465;57.664;39.686;2022-08-19T09:52:35;7.47;;;2.20;;
63342;SDS011;49465;57.664;39.686;2022-08-19T09:55:06;4.50;;;2.05;;
63342;SDS011;49465;57.664;39.686;2022-08-19T09:57:37;6.18;;;2.00;;
63342;SDS011;49465;57.664;39.686;2022-08-19T10:00:05;10.45;;;1.90;;
63342;SDS011;49465;57.664;39.686;2022-08-19T10:02:36;5.27;;;2.03;;
63342;SDS011;49465;57.664;39.686;2022-08-19T10:05:06;5.95;;;2.03;;
63342;SDS011;49465;57.664;39.686;2022-08-19T10:07:56;11.15;;;2.00;;
63342;SDS011;49465;57.664;39.686;2022-08-19T10:10:34;7.43;;;2.00;;
63342;SDS011;49465;57.664;39.686;2022-08-19T10:13:09;8.02;;;2.10;;
63342;SDS011;49465;57.664;39.686;2022-08-19T10:16:08;3.55;;;1.70;;
63342;SDS011;49465;57.664;39.686;2022-08-19T10:18:37;5.50;;;1.73;;
63342;SDS011;49465;57.664;39.686;2022-08-19T10:21:29;10.45;;;2.35;;
63342;SDS011;49465;57.664;39.686;2022-08-19T10:24:08;5.00;;;1.88;;
63342;SDS011;49465;57.664;39.686;2022-08-19T10:26:41;4.18;;;1.55;;
63342;SDS011;49465;57.664;39.686;2022-08-19T10:29:10;4.95;;;1.83;;
63342;SDS011;49465;57.664;39.686;2022-08-19T10:31:42;5.50;;;1.60;;
63342;SDS011;49465;57.664;39.686;2022-08-19T10:34:18;5.65;;;1.80;;
63342;SDS011;49465;57.664;39.686;2022-08-19T10:36:45;8.52;;;1.60;;
63342;SDS011;49465;57.664;39.686;2022-08-19T10:39:16;5.72;;;1.70;;
63342;SDS011;49465;57.664;39.686;2022-08-19T10:41:45;4.40;;;1.60;;
63342;SDS011;49465;57.664;39.686;2022-08-19T10:44:12;4.68;;;1.40;;
63342;SDS011;49465;57.664;39.686;2022-08-19T10:46:41;2.30;;;1.50;;
63342;SDS011;49465;57.664;39.686;2022-08-19T10:49:24;5.80;;;1.40;;
63342;SDS011;49465;57.664;39.686;2022-08-19T10:51:51;5.20;;;1.45;;
63342;SDS011;49465;57.664;39.686;2022-08-19T10:54:36;6.38;;;1.67;;
63342;SDS011;49465;57.664;39.686;2022-08-19T10:57:25;2.55;;;1.50;;
63342;SDS011;49465;57.664;39.686;2022-08-19T10:59:55;8.82;;;4.53;;
63342;SDS011;49465;57.664;39.686;2022-08-19T11:02:43;10.43;;;3.83;;
63342;SDS011;49465;57.664;39.686;2022-08-19T11:05:22;5.32;;;1.80;;
63342;SDS011;49465;57.664;39.686;2022-08-19T11:07:48;4.82;;;1.65;;
63342;SDS011;49465;57.664;39.686;2022-08-19T11:10:16;14.38;;;10.00;;
63342;SDS011;49465;57.664;39.686;2022-08-19T11:12:57;6.43;;;2.40;;
63342;SDS011;49465;57.664;39.686;2022-08-19T11:16:16;7.10;;;1.80;;
63342;SDS011;49465;57.664;39.686;2022-08-19T11:19:09;4.20;;;1.50;;
63342;SDS011;49465;57.664;39.686;2022-08-19T11:21:44;4.93;;;1.60;;
63342;SDS011;49465;57.664;39.686;2022-08-19T11:24:25;4.95;;;1.63;;
63342;SDS011;49465;57.664;39.686;2022-08-19T11:27:05;7.40;;;1.70;;
63342;SDS011;49465;57.664;39.686;2022-08-19T11:29:45;7.38;;;1.75;;
63342;SDS011;49465;57.664;39.686;2022-08-19T11:32:29;3.45;;;1.55;;
63342;SDS011;49465;57.664;39.686;2022-08-19T11:35:09;7.45;;;1.80;;
63342;SDS011;49465;57.664;39.686;2022-08-19T11:37:55;3.33;;;1.60;;
63342;SDS011;49465;57.664;39.686;2022-08-19T11:40:29;7.90;;;1.77;;
63342;SDS011;49465;57.664;39.686;2022-08-19T11:43:04;4.80;;;1.80;;
63342;SDS011;49465;57.664;39.686;2022-08-19T11:45:43;8.35;;;1.70;;
63342;SDS011;49465;57.664;39.686;2022-08-19T11:48:18;7.32;;;1.70;;
63342;SDS011;49465;57.664;39.686;2022-08-19T11:51:03;4.03;;;1.67;;
63342;SDS011;49465;57.664;39.686;2022-08-19T11:53:37;5.75;;;1.92;;
63342;SDS011;49465;57.664;39.686;2022-08-19T11:56:04;3.97;;;1.67;;
63342;SDS011;49465;57.664;39.686;2022-08-19T11:58:33;8.27;;;1.70;;
63342;SDS011;49465;57.664;39.686;2022-08-19T12:01:00;6.45;;;1.95;;
63342;SDS011;49465;57.664;39.686;2022-08-19T12:03:40;4.97;;;2.03;;
63342;SDS011;49465;57.664;39.686;2022-08-19T12:06:12;6.00;;;1.77;;
63342;SDS011;49465;57.664;39.686;2022-08-19T12:08:44;5.10;;;1.83;;
63342;SDS011;49465;57.664;39.686;2022-08-19T12:11:18;5.32;;;2.67;;
63342;SDS011;49465;57.664;39.686;2022-08-19T12:13:50;10.00;;;2.03;;
63342;SDS011;49465;57.664;39.686;2022-08-19T12:16:22;4.63;;;1.75;;
63342;SDS011;49465;57.664;39.686;2022-08-19T12:18:50;4.35;;;1.63;;
63342;SDS011;49465;57.664;39.686;2022-08-19T12:21:31;3.70;;;1.60;;
63342;SDS011;49465;57.664;39.686;2022-08-19T12:23:59;5.00;;;1.60;;
63342;SDS011;49465;57.664;39.686;2022-08-19T12:26:48;5.80;;;1.75;;
63342;SDS011;49465;57.664;39.686;2022-08-19T12:29:27;5.97;;;2.00;;
63342;SDS011;49465;57.664;39.686;2022-08-19T12:32:02;6.00;;;2.03;;
63342;SDS011;49465;57.664;39.686;2022-08-19T12:34:38;4.60;;;1.50;;
63342;SDS011;49465;57.664;39.686;2022-08-19T12:37:08;4.65;;;1.80;;
63342;SDS011;49465;57.664;39.686;2022-08-19T12:39:37;3.60;;;1.70;;
63342;SDS011;49465;57.664;39.686;2022-08-19T12:42:10;14.50;;;2.00;;
63342;SDS011;49465;57.664;39.686;2022-08-19T12:44:38;4.15;;;1.58;;
63342;SDS011;49465;57.664;39.686;2022-08-19T12:47:09;3.28;;;1.67;;
63342;SDS011;49465;57.664;39.686;2022-08-19T12:49:37;9.80;;;1.83;;
63342;SDS011;49465;57.664;39.686;2022-08-19T12:52:11;5.78;;;1.63;;
63342;SDS011;49465;57.664;39.686;2022-08-19T12:54:41;3.85;;;1.83;;
63342;SDS011;49465;57.664;39.686;2022-08-19T12:57:11;5.28;;;1.60;;
63342;SDS011;49465;57.664;39.686;2022-08-19T12:59:38;4.72;;;1.67;;
63342;SDS011;49465;57.664;39.686;2022-08-19T13:02:11;8.88;;;1.70;;
63342;SDS011;49465;57.664;39.686;2022-08-19T13:04:44;6.80;;;1.98;;
63342;SDS011;49465;57.664;39.686;2022-08-19T13:07:10;6.57;;;1.65;;
63342;SDS011;49465;57.664;39.686;2022-08-19T13:09:36;7.28;;;1.90;;
63342;SDS011;49465;57.664;39.686;2022-08-19T13:12:06;6.28;;;1.88;;
63342;SDS011;49465;57.664;39.686;2022-08-19T13:14:37;4.47;;;1.80;;
63342;SDS011;49465;57.664;39.686;2022-08-19T13:17:05;6.07;;;1.80;;
63342;SDS011;49465;57.664;39.686;2022-08-19T13:19:32;6.43;;;1.70;;
63342;SDS011;49465;57.664;39.686;2022-08-19T13:22:10;8.68;;;1.65;;
63342;SDS011;49465;57.664;39.686;2022-08-19T13:24:42;5.55;;;1.95;;
63342;SDS011;49465;57.664;39.686;2022-08-19T13:27:22;8.35;;;1.90;;
63342;SDS011;49465;57.664;39.686;2022-08-19T13:29:49;7.70;;;1.88;;
63342;SDS011;49465;57.664;39.686;2022-08-19T13:32:34;7.13;;;1.85;;
63342;SDS011;49465;57.664;39.686;2022-08-19T13:35:22;6.60;;;1.73;;
63342;SDS011;49465;57.664;39.686;2022-08-19T13:37:54;6.70;;;1.65;;
63342;SDS011;49465;57.664;39.686;2022-08-19T13:40:33;3.85;;;1.80;;
63342;SDS011;49465;57.664;39.686;2022-08-19T13:43:03;3.58;;;1.75;;
63342;SDS011;49465;57.664;39.686;2022-08-19T13:45:34;4.10;;;1.80;;
63342;SDS011;49465;57.664;39.686;2022-08-19T13:48:06;3.42;;;1.90;;
63342;SDS011;49465;57.664;39.686;2022-08-19T13:50:46;4.28;;;1.92;;
63342;SDS011;49465;57.664;39.686;2022-08-19T13:53:18;10.43;;;2.05;;
63342;SDS011;49465;57.664;39.686;2022-08-19T13:56:00;8.57;;;2.00;;
63342;SDS011;49465;57.664;39.686;2022-08-19T13:58:46;4.95;;;1.60;;
63342;SDS011;49465;57.664;39.686;2022-08-19T14:01:21;8.65;;;1.75;;
63342;SDS011;49465;57.664;39.686;2022-08-19T14:03:54;8.00;;;1.73;;
63342;SDS011;49465;57.664;39.686;2022-08-19T14:06:20;7.63;;;1.70;;
63342;SDS011;49465;57.664;39.686;2022-08-19T14:08:51;4.88;;;1.50;;
63342;SDS011;49465;57.664;39.686;2022-08-19T14:11:26;4.45;;;1.70;;
63342;SDS011;49465;57.664;39.686;2022-08-19T14:14:05;3.88;;;1.80;;
63342;SDS011;49465;57.664;39.686;2022-08-19T14:16:40;8.48;;;1.80;;
63342;SDS011;49465;57.664;39.686;2022-08-19T14:19:12;5.93;;;1.70;;
63342;SDS011;49465;57.664;39.686;2022-08-19T14:21:44;7.03;;;1.98;;
63342;SDS011;49465;57.664;39.686;2022-08-19T14:24:32;10.15;;;1.80;;
63342;SDS011;49465;57.664;39.686;2022-08-19T14:27:12;6.15;;;1.60;;
63342;SDS011;49465;57.664;39.686;2022-08-19T14:29:44;3.83;;;1.40;;
63342;SDS011;49465;57.664;39.686;2022-08-19T14:32:18;6.40;;;1.70;;
63342;SDS011;49465;57.664;39.686;2022-08-19T14:34:45;4.32;;;1.65;;
63342;SDS011;49465;57.664;39.686;2022-08-19T14:37:12;2.28;;;1.50;;
63342;SDS011;49465;57.664;39.686;2022-08-19T14:39:44;10.40;;;1.80;;
63342;SDS011;49465;57.664;39.686;2022-08-19T14:42:11;9.05;;;1.70;;
63342;SDS011;49465;57.664;39.686;2022-08-19T14:44:39;4.88;;;1.50;;
63342;SDS011;49465;57.664;39.686;2022-08-19T14:47:12;6.18;;;1.50;;
63342;SDS011;49465;57.664;39.686;2022-08-19T14:49:38;4.50;;;1.50;;
63342;SDS011;49465;57.664;39.686;2022-08-19T14:52:13;3.58;;;1.80;;
63342;SDS011;49465;57.664;39.686;2022-08-19T14:54:47;7.13;;;1.67;;
63342;SDS011;49465;57.664;39.686;2022-08-19T14:57:43;11.38;;;1.75;;
63342;SDS011;49465;57.664;39.686;2022-08-19T15:00:10;8.63;;;1.92;;
63342;SDS011;49465;57.664;39.686;2022-08-19T15:02:40;4.03;;;1.75;;
63342;SDS011;49465;57.664;39.686;2022-08-19T15:05:20;5.82;;;1.75;;
63342;SDS011;49465;57.664;39.686;2022-08-19T15:08:07;11.13;;;1.73;;
63342;SDS011;49465;57.664;39.686;2022-08-19T15:10:38;5.75;;;1.58;;
63342;SDS011;49465;57.664;39.686;2022-08-19T15:13:17;9.63;;;1.92;;
63342;SDS011;49465;57.664;39.686;2022-08-19T15:16:01;4.90;;;1.70;;
63342;SDS011;49465;57.664;39.686;2022-08-19T15:18:43;10.60;;;1.83;;
63342;SDS011;49465;57.664;39.686;2022-08-19T15:21:20;5.93;;;1.70;;
63342;SDS011;49465;57.664;39.686;2022-08-19T15:23:50;3.50;;;1.60;;
63342;SDS011;49465;57.664;39.686;2022-08-19T15:26:20;4.65;;;1.80;;
63342;SDS011;49465;57.664;39.686;2022-08-19T15:28:54;4.72;;;1.70;;
63342;SDS011;49465;57.664;39.686;2022-08-19T15:31:40;7.75;;;1.80;;
63342;SDS011;49465;57.664;39.686;2022-08-19T15:34:06;3.60;;;1.77;;
63342;SDS011;49465;57.664;39.686;2022-08-19T15:36:36;5.32;;;1.85;;
63342;SDS011;49465;57.664;39.686;2022-08-19T15:39:07;5.63;;;1.92;;
63342;SDS011;49465;57.664;39.686;2022-08-19T15:41:46;4.03;;;1.50;;
63342;SDS011;49465;57.664;39.686;2022-08-19T15:44:17;6.93;;;1.80;;
63342;SDS011;49465;57.664;39.686;2022-08-19T15:46:46;8.25;;;2.10;;
63342;SDS011;49465;57.664;39.686;2022-08-19T15:49:20;5.90;;;2.00;;